Time;durP1;ratioP1;P1;durP2;ratioP2;P2;SDS_P1;SDS_P2;PMS_P1;PMS_P2;Temp;Humidity;BMP_temperature;BMP_pressure;BME280_temperature;BME280_humidity;BME280_pressure;Samples;Min_cycle;Max_cycle;Signal;HPM_P1;HPM_P2
2023/07/20 00:01:11;;;;;;;7.60;2.83;;;15.70;99.90;;;;;;4953630;28;20474;-69
2023/07/20 00:03:37;;;;;;;3.92;2.60;;;15.70;99.90;;;;;;4953689;29;20412;-69
2023/07/20 00:06:04;;;;;;;6.28;3.30;;;15.70;99.90;;;;;;4953099;28;20027;-69
2023/07/20 00:08:30;;;;;;;7.50;4.63;;;15.70;99.90;;;;;;4953909;28;20041;-69
2023/07/20 00:10:56;;;;;;;11.15;4.82;;;15.60;99.90;;;;;;4953713;28;20039;-68
2023/07/20 00:13:21;;;;;;;6.10;3.67;;;15.70;99.90;;;;;;4953633;28;20031;-68
2023/07/20 00:15:47;;;;;;;7.35;3.60;;;15.60;99.90;;;;;;4953401;28;20031;-67
2023/07/20 00:18:13;;;;;;;6.90;3.63;;;15.60;99.90;;;;;;4953851;29;20047;-68
2023/07/20 00:20:39;;;;;;;9.75;4.72;;;15.60;99.90;;;;;;4953532;28;20042;-68
2023/07/20 00:23:05;;;;;;;8.20;3.97;;;15.60;99.90;;;;;;4953547;28;20077;-67
2023/07/20 00:25:31;;;;;;;6.10;3.70;;;15.50;99.90;;;;;;4953735;29;20101;-68
2023/07/20 00:27:56;;;;;;;8.50;3.97;;;15.50;99.90;;;;;;4953719;29;20027;-68
2023/07/20 00:30:22;;;;;;;8.82;3.97;;;15.40;99.90;;;;;;4953307;29;20036;-68
2023/07/20 00:32:47;;;;;;;6.65;3.92;;;15.40;99.90;;;;;;4953819;29;20027;-67
2023/07/20 00:35:13;;;;;;;9.68;4.10;;;15.40;99.90;;;;;;4953621;29;20031;-68
2023/07/20 00:37:39;;;;;;;8.43;3.97;;;15.40;99.90;;;;;;4953529;28;20066;-70
2023/07/20 00:40:07;;;;;;;7.35;4.28;;;15.30;99.90;;;;;;4953552;29;20055;-67
2023/07/20 00:42:33;;;;;;;8.93;4.20;;;15.30;99.90;;;;;;4953729;28;20035;-68
2023/07/20 00:44:58;;;;;;;6.30;3.83;;;15.30;99.90;;;;;;4953087;28;20023;-68
2023/07/20 00:47:24;;;;;;;9.90;4.38;;;15.20;99.90;;;;;;4953438;29;20847;-68
2023/07/20 00:49:51;;;;;;;8.18;3.53;;;15.20;99.90;;;;;;4953458;29;20035;-68
2023/07/20 00:52:20;;;;;;;10.98;4.22;;;15.10;99.90;;;;;;4953544;28;20031;-68
2023/07/20 00:54:46;;;;;;;7.70;4.50;;;15.10;99.90;;;;;;4953565;28;20031;-68
2023/07/20 00:57:14;;;;;;;9.35;4.80;;;15.10;99.90;;;;;;4953336;28;20039;-68
2023/07/20 00:59:40;;;;;;;9.40;4.57;;;15.00;99.90;;;;;;4952981;28;20126;-68
2023/07/20 01:02:06;;;;;;;7.78;4.60;;;15.00;99.90;;;;;;4953447;29;20118;-68
2023/07/20 01:04:32;;;;;;;10.25;5.20;;;15.00;99.90;;;;;;4953464;28;20093;-67
2023/07/20 01:07:01;;;;;;;8.95;4.60;;;15.00;99.90;;;;;;4953551;28;20023;-67
2023/07/20 01:09:37;;;;;;;9.95;4.95;;;14.90;99.90;;;;;;4921918;29;20028;-68
2023/07/20 01:12:13;;;;;;;8.02;4.65;;;14.90;99.90;;;;;;4953178;28;20035;-68
2023/07/20 01:14:39;;;;;;;9.10;4.90;;;14.80;99.90;;;;;;4953421;28;20035;-68
2023/07/20 01:17:04;;;;;;;7.35;4.72;;;14.80;99.90;;;;;;4953805;28;20027;-67
2023/07/20 01:19:30;;;;;;;10.40;4.93;;;14.80;99.90;;;;;;4956537;29;20078;-67
2023/07/20 01:22:23;;;;;;;9.07;5.38;;;14.70;99.90;;;;;;4955225;29;20448;-68
2023/07/20 01:25:16;;;;;;;9.43;5.47;;;14.70;99.90;;;;;;4956419;28;20034;-67
2023/07/20 01:27:54;;;;;;;9.75;5.28;;;14.70;99.90;;;;;;4929221;29;20094;-68
2023/07/20 01:30:34;;;;;;;7.95;5.05;;;14.70;99.90;;;;;;4956346;28;20027;-69
2023/07/20 01:33:01;;;;;;;8.93;5.10;;;14.60;99.90;;;;;;4956516;29;20024;-67
2023/07/20 01:35:29;;;;;;;11.38;5.88;;;14.60;99.90;;;;;;4956595;28;20031;-67
2023/07/20 01:37:57;;;;;;;10.88;5.60;;;14.60;99.90;;;;;;4956183;28;20027;-68
2023/07/20 01:40:25;;;;;;;10.90;6.15;;;14.60;99.90;;;;;;4956350;28;20105;-68
2023/07/20 01:42:52;;;;;;;15.32;7.43;;;14.50;99.90;;;;;;4956226;28;20027;-68
2023/07/20 01:45:17;;;;;;;9.95;6.60;;;14.50;99.90;;;;;;4955868;28;20126;-68
2023/07/20 01:47:43;;;;;;;11.52;6.80;;;14.50;99.90;;;;;;4956217;28;20038;-68
2023/07/20 01:50:09;;;;;;;17.27;9.88;;;14.50;99.90;;;;;;4956259;29;20090;-67
2023/07/20 01:52:35;;;;;;;10.27;6.03;;;14.40;99.90;;;;;;4955854;28;20459;-67
2023/07/20 01:55:00;;;;;;;10.60;6.70;;;14.40;99.90;;;;;;4956146;29;20035;-67
2023/07/20 01:57:26;;;;;;;8.52;5.30;;;14.40;99.90;;;;;;4939854;29;20071;-67
2023/07/20 01:59:51;;;;;;;12.75;5.85;;;14.40;99.90;;;;;;4955568;29;20043;-68
2023/07/20 02:02:18;;;;;;;9.10;5.65;;;14.40;99.90;;;;;;4956011;29;20087;-68
2023/07/20 02:04:43;;;;;;;12.77;5.63;;;14.40;99.90;;;;;;4955697;28;20031;-68
2023/07/20 02:07:09;;;;;;;10.35;6.13;;;14.30;99.90;;;;;;4955919;29;20479;-68
2023/07/20 02:09:34;;;;;;;10.80;5.88;;;14.40;99.90;;;;;;4955702;29;20027;-68
2023/07/20 02:12:00;;;;;;;11.90;6.55;;;14.30;99.90;;;;;;4955867;29;20031;-67
2023/07/20 02:14:26;;;;;;;9.40;5.57;;;14.30;99.90;;;;;;4955524;29;20039;-68
2023/07/20 02:16:52;;;;;;;10.45;5.38;;;14.30;99.90;;;;;;4955285;29;20035;-68
2023/07/20 02:19:18;;;;;;;11.38;5.63;;;14.30;99.90;;;;;;4955679;28;20035;-68
2023/07/20 02:21:44;;;;;;;10.27;5.57;;;14.30;99.90;;;;;;4955667;28;20058;-68
2023/07/20 02:24:09;;;;;;;9.10;5.55;;;14.20;99.90;;;;;;4955689;29;20055;-68
2023/07/20 02:26:35;;;;;;;10.18;6.32;;;14.20;99.90;;;;;;4955446;29;20066;-68
2023/07/20 02:29:00;;;;;;;8.85;5.50;;;14.20;99.90;;;;;;4954410;28;20174;-68
2023/07/20 02:31:26;;;;;;;10.70;6.43;;;14.10;99.90;;;;;;4923890;29;20043;-68
2023/07/20 02:33:51;;;;;;;11.18;6.03;;;14.10;99.90;;;;;;4954466;29;20031;-68
2023/07/20 02:36:17;;;;;;;13.48;6.88;;;14.10;99.90;;;;;;4937596;29;20038;-68
2023/07/20 02:38:43;;;;;;;10.55;5.88;;;14.10;99.90;;;;;;4935899;29;20058;-67
2023/07/20 02:41:08;;;;;;;8.70;5.80;;;14.10;99.90;;;;;;4936247;29;20037;-68
2023/07/20 02:43:34;;;;;;;8.70;5.28;;;14.00;99.90;;;;;;4934650;29;20119;-68
2023/07/20 02:45:59;;;;;;;11.32;6.13;;;14.00;99.90;;;;;;4936264;29;20031;-68
2023/07/20 02:48:25;;;;;;;10.70;5.97;;;14.00;99.90;;;;;;4936075;29;20031;-68
2023/07/20 02:50:50;;;;;;;12.48;6.80;;;14.00;99.90;;;;;;4935993;29;20087;-68
2023/07/20 02:53:16;;;;;;;12.40;6.35;;;14.00;99.90;;;;;;4935912;29;20047;-68
2023/07/20 02:55:41;;;;;;;9.50;5.95;;;14.00;99.90;;;;;;4935985;29;20039;-68
2023/07/20 02:58:08;;;;;;;9.90;6.60;;;14.00;99.90;;;;;;4935484;29;20042;-68
2023/07/20 03:00:33;;;;;;;9.07;5.60;;;14.00;99.90;;;;;;4935128;29;20052;-68
2023/07/20 03:02:59;;;;;;;9.20;5.05;;;13.90;99.90;;;;;;4935911;29;20365;-67
2023/07/20 03:05:27;;;;;;;8.55;5.40;;;13.90;99.90;;;;;;4936096;29;20468;-67
2023/07/20 03:07:53;;;;;;;10.20;5.97;;;13.80;99.90;;;;;;4935780;29;20031;-69
2023/07/20 03:10:19;;;;;;;8.93;5.15;;;13.80;99.90;;;;;;4935578;29;20028;-68
2023/07/20 03:12:44;;;;;;;6.18;4.40;;;13.80;99.90;;;;;;4935265;29;20039;-67
2023/07/20 03:15:10;;;;;;;6.53;5.07;;;13.70;99.90;;;;;;4935799;29;20058;-68
2023/07/20 03:17:36;;;;;;;10.25;5.93;;;13.70;99.90;;;;;;4935562;29;20032;-68
2023/07/20 03:20:02;;;;;;;11.38;5.65;;;13.70;99.90;;;;;;4935311;29;20039;-67
2023/07/20 03:22:28;;;;;;;8.85;5.32;;;13.70;99.90;;;;;;4935580;29;20032;-68
2023/07/20 03:24:53;;;;;;;10.18;4.80;;;13.70;99.90;;;;;;4935250;29;20042;-68
2023/07/20 03:27:19;;;;;;;9.27;5.60;;;13.70;99.90;;;;;;4935357;29;20034;-68
2023/07/20 03:29:44;;;;;;;10.23;5.40;;;13.60;99.90;;;;;;4935399;29;20372;-67
2023/07/20 03:32:10;;;;;;;8.70;5.15;;;13.60;99.90;;;;;;4935322;29;20035;-67
2023/07/20 03:34:36;;;;;;;8.18;4.70;;;13.60;99.90;;;;;;4935323;29;20420;-67
2023/07/20 03:37:04;;;;;;;7.82;4.10;;;13.60;99.90;;;;;;4935696;29;20036;-67
2023/07/20 03:39:30;;;;;;;6.28;4.28;;;13.50;99.90;;;;;;4935452;29;20053;-67
2023/07/20 03:41:55;;;;;;;4.95;4.15;;;13.50;99.90;;;;;;4934682;29;20039;-68
2023/07/20 03:44:21;;;;;;;8.82;4.50;;;13.50;99.90;;;;;;4935255;29;20062;-67
2023/07/20 03:46:46;;;;;;;7.00;4.80;;;13.50;99.90;;;;;;4935240;29;20070;-67
2023/07/20 03:49:12;;;;;;;7.88;5.10;;;13.50;99.90;;;;;;4935110;29;20095;-67
2023/07/20 03:51:37;;;;;;;6.97;4.50;;;13.40;99.90;;;;;;4934655;29;20043;-68
2023/07/20 03:54:03;;;;;;;10.43;5.88;;;13.40;99.90;;;;;;4935143;29;20046;-68
2023/07/20 03:56:32;;;;;;;9.93;4.88;;;13.40;99.90;;;;;;4934830;29;20380;-67
2023/07/20 03:58:57;;;;;;;8.90;4.60;;;13.40;99.90;;;;;;4934717;29;20075;-67
2023/07/20 04:01:23;;;;;;;8.80;4.97;;;13.40;99.90;;;;;;4934998;29;20035;-68
2023/07/20 04:03:48;;;;;;;8.60;5.68;;;13.40;99.90;;;;;;4934677;29;20038;-67
2023/07/20 04:06:14;;;;;;;11.00;6.20;;;13.40;99.90;;;;;;4935153;29;20032;-67
2023/07/20 04:08:39;;;;;;;11.02;5.13;;;13.40;99.90;;;;;;4935100;29;20067;-67
2023/07/20 04:11:05;;;;;;;9.85;5.78;;;13.40;99.90;;;;;;4934545;29;20028;-68
2023/07/20 04:13:34;;;;;;;6.88;4.90;;;13.40;99.90;;;;;;4935098;29;20036;-67
2023/07/20 04:16:00;;;;;;;6.20;4.82;;;13.40;99.90;;;;;;4934955;29;20032;-67
2023/07/20 04:18:25;;;;;;;9.35;5.28;;;13.40;99.90;;;;;;4934862;29;20114;-68
2023/07/20 04:20:51;;;;;;;6.85;4.70;;;13.40;99.90;;;;;;4934866;29;20054;-67
2023/07/20 04:23:17;;;;;;;7.03;4.55;;;13.40;99.90;;;;;;4934853;29;20042;-67
2023/07/20 04:25:43;;;;;;;7.63;4.50;;;13.40;99.90;;;;;;4934744;29;20034;-69
2023/07/20 04:28:09;;;;;;;6.22;4.20;;;13.40;99.90;;;;;;4934880;29;20063;-67
2023/07/20 04:30:39;;;;;;;8.88;4.97;;;13.50;99.90;;;;;;4934750;29;20110;-67
2023/07/20 04:33:05;;;;;;;5.75;4.50;;;13.50;99.90;;;;;;4934932;29;20032;-67
2023/07/20 04:35:48;;;;;;;7.95;4.68;;;13.50;99.90;;;;;;4933665;29;20478;-68
2023/07/20 04:38:17;;;;;;;7.13;4.43;;;13.60;99.90;;;;;;4934384;29;20051;-68
2023/07/20 04:40:44;;;;;;;7.63;4.53;;;13.60;99.90;;;;;;4934584;29;20463;-69
2023/07/20 04:43:10;;;;;;;6.88;4.60;;;13.70;99.90;;;;;;4934934;29;20032;-67
2023/07/20 04:45:35;;;;;;;8.85;4.80;;;13.70;99.90;;;;;;4934490;29;20083;-67
2023/07/20 04:48:01;;;;;;;10.20;4.97;;;13.70;99.90;;;;;;4934987;29;20032;-67
2023/07/20 04:50:26;;;;;;;10.57;5.15;;;13.80;99.90;;;;;;4934346;29;20039;-67
2023/07/20 04:52:53;;;;;;;6.72;4.20;;;13.80;99.90;;;;;;4936095;29;20027;-67
2023/07/20 04:55:18;;;;;;;7.85;4.47;;;13.90;99.90;;;;;;4938368;29;20028;-67
2023/07/20 04:57:44;;;;;;;6.18;3.67;;;13.90;99.90;;;;;;4938282;29;20034;-67
2023/07/20 05:00:11;;;;;;;5.85;3.55;;;14.00;99.90;;;;;;4936798;29;20119;-66
2023/07/20 05:02:37;;;;;;;9.75;3.72;;;14.00;99.90;;;;;;4937906;29;20031;-68
2023/07/20 05:05:05;;;;;;;5.40;3.45;;;14.10;99.90;;;;;;4938272;29;20079;-67
2023/07/20 05:07:31;;;;;;;34.10;12.95;;;14.20;99.90;;;;;;4937617;29;20028;-67
2023/07/20 05:09:57;;;;;;;19.23;6.05;;;14.30;99.90;;;;;;4938177;29;20168;-67
2023/07/20 05:12:23;;;;;;;14.02;5.15;;;14.40;99.90;;;;;;4937842;29;20495;-66
2023/07/20 05:14:48;;;;;;;16.50;5.72;;;14.50;99.90;;;;;;4937981;29;20403;-67
2023/07/20 05:17:14;;;;;;;13.63;4.93;;;14.60;99.90;;;;;;4937614;29;20428;-67
2023/07/20 05:19:39;;;;;;;14.40;6.13;;;14.70;99.90;;;;;;4937792;29;20054;-67
2023/07/20 05:22:05;;;;;;;24.48;8.05;;;14.80;99.90;;;;;;4937648;29;20465;-67
2023/07/20 05:24:31;;;;;;;9.10;3.40;;;14.90;99.90;;;;;;4938226;29;20032;-67
2023/07/20 05:26:58;;;;;;;8.00;2.53;;;15.00;99.90;;;;;;4937661;29;20487;-67
2023/07/20 05:29:24;;;;;;;3.85;2.30;;;15.10;99.90;;;;;;4937625;29;20040;-67
2023/07/20 05:31:49;;;;;;;4.65;2.15;;;15.20;99.90;;;;;;4937491;29;20043;-67
2023/07/20 05:34:15;;;;;;;4.93;1.70;;;15.30;99.90;;;;;;4937654;29;20484;-68
2023/07/20 05:36:40;;;;;;;4.35;2.30;;;15.50;99.90;;;;;;4937481;29;20463;-67
2023/07/20 05:39:06;;;;;;;7.85;3.00;;;15.70;99.90;;;;;;4937813;29;20055;-67
2023/07/20 05:41:35;;;;;;;3.38;2.00;;;16.00;99.90;;;;;;4937644;29;20038;-69
2023/07/20 05:44:01;;;;;;;5.38;2.47;;;16.20;99.90;;;;;;4937494;29;20412;-67
2023/07/20 05:46:26;;;;;;;7.80;1.98;;;16.50;99.90;;;;;;4937242;29;20167;-68
2023/07/20 05:48:52;;;;;;;6.57;2.15;;;16.80;99.90;;;;;;4936934;29;20079;-67
2023/07/20 05:51:17;;;;;;;5.63;2.30;;;17.10;99.90;;;;;;4936758;29;20032;-67
2023/07/20 05:53:43;;;;;;;4.82;1.67;;;17.50;99.90;;;;;;4937294;29;20032;-67
2023/07/20 05:56:12;;;;;;;3.30;1.90;;;17.90;99.90;;;;;;4937131;29;20034;-68
2023/07/20 05:58:38;;;;;;;3.80;1.98;;;18.60;99.90;;;;;;4936769;29;20094;-67
2023/07/20 06:01:06;;;;;;;3.80;1.55;;;19.50;99.90;;;;;;4935553;29;20036;-67
2023/07/20 06:03:33;;;;;;;4.65;1.10;;;20.40;99.90;;;;;;4936055;29;20063;-66
2023/07/20 06:06:02;;;;;;;4.45;0.82;;;21.30;99.90;;;;;;4937143;29;20083;-68
2023/07/20 06:08:31;;;;;;;3.88;1.30;;;22.40;99.90;;;;;;4936051;29;20463;-67
2023/07/20 06:10:57;;;;;;;1.25;0.70;;;23.50;99.90;;;;;;4936766;29;20027;-68
2023/07/20 06:13:23;;;;;;;3.33;1.20;;;24.50;99.90;;;;;;4936776;29;20086;-68
2023/07/20 06:15:49;;;;;;;3.35;0.80;;;25.40;99.90;;;;;;4936937;29;20039;-67
2023/07/20 06:18:15;;;;;;;4.07;1.27;;;26.30;99.90;;;;;;4936340;29;20040;-68
2023/07/20 06:20:40;;;;;;;3.83;1.40;;;27.10;99.90;;;;;;4936866;29;20055;-68
2023/07/20 06:23:06;;;;;;;4.97;1.45;;;27.90;99.90;;;;;;4936487;29;20028;-68
2023/07/20 06:25:32;;;;;;;4.47;1.40;;;28.60;97.30;;;;;;4936234;29;20056;-68
2023/07/20 06:27:59;;;;;;;2.65;1.08;;;29.30;96.90;;;;;;4936428;29;20023;-67
2023/07/20 06:30:25;;;;;;;1.42;0.80;;;30.00;96.20;;;;;;4936566;29;20032;-68
2023/07/20 06:32:51;;;;;;;3.28;1.77;;;30.70;94.10;;;;;;4936282;29;20032;-68
2023/07/20 06:35:17;;;;;;;1.23;0.85;;;31.20;93.50;;;;;;4936801;29;20439;-68
2023/07/20 06:37:43;;;;;;;6.60;1.45;;;31.80;92.70;;;;;;4936567;29;20175;-67
2023/07/20 06:40:09;;;;;;;3.28;1.10;;;32.20;91.20;;;;;;4936488;29;20130;-68
2023/07/20 06:42:34;;;;;;;2.20;0.93;;;32.40;89.20;;;;;;4936132;29;20094;-67
2023/07/20 06:45:00;;;;;;;4.00;1.02;;;32.60;88.50;;;;;;4936321;29;20067;-67
2023/07/20 06:47:26;;;;;;;1.20;0.80;;;32.70;86.50;;;;;;4935675;29;20023;-67
2023/07/20 06:49:51;;;;;;;1.45;0.73;;;32.80;86.40;;;;;;4936204;29;20448;-67
2023/07/20 06:52:17;;;;;;;3.90;1.98;;;33.00;86.20;;;;;;4932946;29;20028;-67
2023/07/20 06:54:42;;;;;;;9.05;5.18;;;33.10;85.90;;;;;;4925820;29;20019;-68
2023/07/20 06:57:08;;;;;;;10.82;5.43;;;33.40;85.60;;;;;;4926526;29;20119;-68
2023/07/20 06:59:33;;;;;;;3.58;2.33;;;33.70;84.90;;;;;;4924677;29;20062;-67
2023/07/20 07:01:59;;;;;;;4.30;2.60;;;34.10;83.50;;;;;;4926225;29;20114;-68
2023/07/20 07:04:25;;;;;;;6.22;2.88;;;34.40;82.50;;;;;;4926621;29;20100;-68
2023/07/20 07:06:50;;;;;;;8.80;5.45;;;34.70;82.70;;;;;;4925151;29;20083;-67
2023/07/20 07:09:18;;;;;;;3.55;2.30;;;34.90;82.00;;;;;;4925612;29;20034;-68
2023/07/20 07:11:50;;;;;;;4.03;2.00;;;34.60;79.90;;;;;;4925954;29;20111;-66
2023/07/20 07:14:15;;;;;;;2.25;0.98;;;34.30;80.40;;;;;;4924197;28;20166;-67
2023/07/20 07:16:41;;;;;;;2.08;1.25;;;34.40;79.90;;;;;;4928884;29;20020;-67
2023/07/20 07:19:08;;;;;;;3.78;1.40;;;34.50;80.80;;;;;;4935379;29;20118;-68
2023/07/20 07:21:33;;;;;;;3.30;1.95;;;34.60;79.00;;;;;;4953687;28;20099;-67
2023/07/20 07:23:59;;;;;;;5.90;2.42;;;34.20;79.10;;;;;;4954504;29;20031;-67
2023/07/20 07:26:25;;;;;;;3.80;2.03;;;33.20;79.70;;;;;;4934166;28;20027;-67
2023/07/20 07:28:51;;;;;;;3.15;1.63;;;32.90;79.90;;;;;;4935585;29;20028;-67
2023/07/20 07:31:16;;;;;;;11.38;6.53;;;33.00;79.70;;;;;;4950430;29;20031;-67
2023/07/20 07:33:42;;;;;;;7.35;3.65;;;32.90;80.70;;;;;;4954481;29;20039;-68
2023/07/20 07:36:08;;;;;;;4.57;2.72;;;32.80;78.80;;;;;;4954725;28;20031;-67
2023/07/20 07:38:33;;;;;;;10.98;5.57;;;32.20;79.70;;;;;;4952832;29;20598;-67
2023/07/20 07:40:59;;;;;;;4.53;2.13;;;31.30;80.50;;;;;;4954472;28;20502;-67
2023/07/20 07:43:25;;;;;;;5.57;2.92;;;30.40;81.30;;;;;;4954319;28;20042;-67
2023/07/20 07:45:54;;;;;;;6.03;2.95;;;29.30;82.30;;;;;;4954147;28;20042;-67
2023/07/20 07:48:20;;;;;;;8.55;2.33;;;28.20;84.10;;;;;;4954548;28;20027;-67
2023/07/20 07:50:46;;;;;;;5.80;1.95;;;27.20;86.30;;;;;;4954431;28;20031;-67
2023/07/20 07:53:11;;;;;;;5.70;3.03;;;26.40;88.20;;;;;;4954476;29;20382;-67
2023/07/20 07:55:37;;;;;;;9.40;4.60;;;25.90;88.50;;;;;;4954208;29;20078;-67
2023/07/20 07:58:02;;;;;;;7.47;3.05;;;25.70;90.00;;;;;;4954486;28;20031;-68
2023/07/20 08:00:28;;;;;;;2.05;1.85;;;25.80;90.40;;;;;;4953559;29;20058;-67
2023/07/20 08:02:53;;;;;;;3.22;1.70;;;26.10;88.40;;;;;;4954480;29;20042;-67
2023/07/20 08:05:19;;;;;;;4.28;2.47;;;26.50;90.00;;;;;;4954163;29;20034;-68
2023/07/20 08:07:45;;;;;;;4.57;2.20;;;27.10;90.00;;;;;;4954213;29;20023;-68
2023/07/20 08:10:11;;;;;;;2.28;1.08;;;27.70;89.70;;;;;;4954251;28;20035;-67
2023/07/20 08:12:36;;;;;;;7.30;3.65;;;28.10;88.30;;;;;;4936124;28;20036;-67
2023/07/20 08:15:02;;;;;;;4.45;2.17;;;28.10;87.60;;;;;;4934417;29;20032;-66
2023/07/20 08:17:28;;;;;;;4.65;1.75;;;27.90;88.40;;;;;;4946783;29;20400;-67
2023/07/20 08:19:53;;;;;;;8.63;4.35;;;27.60;86.20;;;;;;4953732;29;20089;-67
2023/07/20 08:22:19;;;;;;;5.28;3.40;;;27.10;87.80;;;;;;4953857;29;20054;-67
2023/07/20 08:24:44;;;;;;;6.50;3.20;;;27.00;89.10;;;;;;4953910;28;20071;-68
2023/07/20 08:27:10;;;;;;;3.30;1.65;;;27.30;87.50;;;;;;4954836;28;20498;-66
2023/07/20 08:29:37;;;;;;;1.50;1.02;;;28.00;87.80;;;;;;4957750;29;20601;-67
2023/07/20 08:32:03;;;;;;;5.65;2.15;;;28.90;84.30;;;;;;4957963;28;20042;-67
2023/07/20 08:34:29;;;;;;;5.85;2.22;;;29.80;84.10;;;;;;4957912;28;20034;-68
2023/07/20 08:36:56;;;;;;;11.00;5.25;;;30.80;84.00;;;;;;4957473;28;20035;-68
2023/07/20 08:39:22;;;;;;;7.82;4.45;;;32.10;81.30;;;;;;4957774;28;20168;-68
2023/07/20 08:41:49;;;;;;;2.92;0.95;;;33.20;79.00;;;;;;4957375;28;20118;-68
2023/07/20 08:44:15;;;;;;;3.47;2.15;;;34.20;77.20;;;;;;4957657;28;20086;-68
2023/07/20 08:46:42;;;;;;;9.30;4.38;;;34.70;76.00;;;;;;4957784;28;20027;-68
2023/07/20 08:49:08;;;;;;;9.07;3.92;;;34.20;75.30;;;;;;4957234;28;20035;-68
2023/07/20 08:51:35;;;;;;;4.22;1.13;;;34.20;74.90;;;;;;4957342;28;20460;-68
2023/07/20 08:54:00;;;;;;;6.03;3.67;;;34.00;73.50;;;;;;4957450;28;20031;-68
2023/07/20 08:56:26;;;;;;;3.03;1.20;;;34.40;73.60;;;;;;4957292;28;20031;-69
2023/07/20 08:58:53;;;;;;;5.25;3.28;;;35.40;72.00;;;;;;4957613;29;20467;-68
2023/07/20 09:01:20;;;;;;;3.55;1.88;;;36.50;70.70;;;;;;4957630;28;20031;-68
2023/07/20 09:03:46;;;;;;;4.10;2.22;;;37.50;69.80;;;;;;4957522;28;20035;-69
2023/07/20 09:06:12;;;;;;;3.97;1.80;;;38.30;69.40;;;;;;4928350;28;20051;-67
2023/07/20 09:08:39;;;;;;;5.25;2.35;;;38.80;68.30;;;;;;4937529;29;20059;-67
2023/07/20 09:11:05;;;;;;;2.40;1.30;;;39.20;67.20;;;;;;4951404;29;20062;-67
2023/07/20 09:13:35;;;;;;;3.42;1.30;;;39.40;66.50;;;;;;4956124;29;20031;-67
2023/07/20 09:16:00;;;;;;;1.75;1.08;;;39.80;65.80;;;;;;4950590;29;20071;-69
2023/07/20 09:18:34;;;;;;;3.30;1.95;;;39.40;65.30;;;;;;4948683;28;20055;-69
2023/07/20 09:21:06;;;;;;;10.00;2.75;;;39.40;65.20;;;;;;4956656;28;20047;-69
2023/07/20 09:23:31;;;;;;;2.42;1.50;;;39.70;64.90;;;;;;4956729;28;20035;-69
2023/07/20 09:25:58;;;;;;;2.03;1.30;;;39.80;64.40;;;;;;4956948;29;20422;-68
2023/07/20 09:28:23;;;;;;;2.53;1.42;;;39.80;64.20;;;;;;4957073;28;20467;-68
2023/07/20 09:30:49;;;;;;;4.00;0.80;;;39.40;63.80;;;;;;4956660;28;20028;-68
2023/07/20 09:33:20;;;;;;;2.65;1.60;;;38.60;63.90;;;;;;4956606;29;20554;-69
2023/07/20 09:35:46;;;;;;;2.33;1.45;;;38.20;64.50;;;;;;4956527;28;20039;-69
2023/07/20 09:38:14;;;;;;;4.10;2.17;;;38.60;63.90;;;;;;4956125;28;20065;-69
2023/07/20 09:40:40;;;;;;;4.45;1.80;;;38.50;63.60;;;;;;4956557;28;20432;-68
2023/07/20 09:43:08;;;;;;;2.60;1.40;;;38.00;63.80;;;;;;4956821;28;20027;-67
2023/07/20 09:45:41;;;;;;;3.60;1.58;;;38.00;63.80;;;;;;4956349;28;20031;-68
2023/07/20 09:48:08;;;;;;;1.65;0.77;;;38.30;63.50;;;;;;4955321;28;20455;-67
2023/07/20 09:50:40;;;;;;;1.88;1.08;;;38.70;63.10;;;;;;4943249;29;20471;-68
2023/07/20 09:53:06;;;;;;;2.55;1.42;;;39.40;62.30;;;;;;4956658;28;20032;-67
2023/07/20 09:55:34;;;;;;;2.95;1.40;;;39.60;61.60;;;;;;4956126;28;20455;-67
2023/07/20 09:58:00;;;;;;;2.50;1.25;;;39.30;61.40;;;;;;4956281;28;20031;-68
2023/07/20 10:00:26;;;;;;;2.72;0.50;;;38.70;61.60;;;;;;4955351;28;20067;-68
2023/07/20 10:02:53;;;;;;;1.08;0.73;;;38.20;62.00;;;;;;4936873;29;20111;-69
2023/07/20 10:05:19;;;;;;;1.50;1.10;;;38.20;62.70;;;;;;4936074;29;20106;-69
2023/07/20 10:07:48;;;;;;;3.63;1.52;;;38.60;62.40;;;;;;4936529;29;20035;-69
2023/07/20 10:10:18;;;;;;;1.50;0.65;;;39.30;62.50;;;;;;4936643;29;20067;-69
2023/07/20 10:12:48;;;;;;;4.57;2.63;;;39.50;62.20;;;;;;4922644;29;20064;-69
2023/07/20 10:15:24;;;;;;;2.00;0.80;;;40.10;61.00;;;;;;4926724;29;20099;-68
2023/07/20 10:18:01;;;;;;;3.78;2.00;;;40.60;59.50;;;;;;4925805;29;20102;-69
2023/07/20 10:20:27;;;;;;;2.38;1.15;;;40.80;59.70;;;;;;4925990;29;20047;-68
2023/07/20 10:22:54;;;;;;;2.30;0.77;;;40.90;59.40;;;;;;4927422;29;20027;-68
2023/07/20 10:25:22;;;;;;;2.60;1.30;;;40.90;59.70;;;;;;4926786;29;20031;-69
2023/07/20 10:27:48;;;;;;;2.03;1.00;;;40.90;59.60;;;;;;4925743;29;20528;-69
2023/07/20 10:30:14;;;;;;;2.15;0.40;;;41.30;58.70;;;;;;4926636;29;20043;-69
2023/07/20 10:32:42;;;;;;;2.75;1.45;;;41.80;57.60;;;;;;4926959;29;20035;-70
2023/07/20 10:35:15;;;;;;;8.38;2.97;;;41.60;58.40;;;;;;4925308;29;20039;-68
2023/07/20 10:38:10;;;;;;;1.30;0.80;;;41.50;58.60;;;;;;4925739;29;20078;-69
2023/07/20 10:40:39;;;;;;;1.20;0.52;;;41.70;58.30;;;;;;4914156;29;20071;-68
2023/07/20 10:43:07;;;;;;;1.83;1.33;;;42.10;57.50;;;;;;4927460;29;20046;-69
2023/07/20 10:45:52;;;;;;;1.50;0.80;;;42.50;57.40;;;;;;4926890;29;20028;-69
2023/07/20 10:48:23;;;;;;;9.88;4.25;;;43.20;56.00;;;;;;4928660;29;20107;-69
2023/07/20 10:51:19;;;;;;;3.65;2.20;;;43.30;56.30;;;;;;4926546;29;20028;-69
2023/07/20 10:53:45;;;;;;;2.00;1.20;;;43.30;55.90;;;;;;4926672;29;20046;-69
2023/07/20 10:56:15;;;;;;;5.90;1.20;;;43.70;55.30;;;;;;4924600;29;20480;-69
2023/07/20 10:58:41;;;;;;;1.63;1.08;;;44.00;54.70;;;;;;4925512;29;20585;-70
2023/07/20 11:01:08;;;;;;;2.20;1.23;;;44.30;55.40;;;;;;4926936;29;20031;-70
2023/07/20 11:03:38;;;;;;;3.97;1.13;;;44.80;55.00;;;;;;4925410;29;20476;-70
2023/07/20 11:06:25;;;;;;;0.60;0.60;;;44.80;54.40;;;;;;4925511;29;20059;-69
2023/07/20 11:09:16;;;;;;;1.70;0.90;;;44.70;54.20;;;;;;4927110;29;20031;-69
2023/07/20 11:11:46;;;;;;;;;;;43.40;54.90;;;;;;4926828;29;20112;-70
2023/07/20 11:14:26;;;;;;;3.05;1.02;;;42.50;56.00;;;;;;4924805;29;20390;-70
2023/07/20 11:16:53;;;;;;;7.90;2.63;;;42.10;55.70;;;;;;4925285;29;20031;-69
2023/07/20 11:19:25;;;;;;;3.53;1.15;;;41.90;55.00;;;;;;4925504;29;20043;-70
2023/07/20 11:21:53;;;;;;;3.80;1.67;;;41.90;55.70;;;;;;4924967;29;20028;-70
2023/07/20 11:24:19;;;;;;;4.10;1.40;;;41.90;55.30;;;;;;4924035;29;20039;-69
2023/07/20 11:26:50;;;;;;;1.35;0.95;;;41.80;55.20;;;;;;4926658;29;20032;-69
2023/07/20 11:29:23;;;;;;;2.83;1.15;;;41.60;55.30;;;;;;4925368;29;20059;-69
2023/07/20 11:31:49;;;;;;;3.10;1.13;;;41.50;54.70;;;;;;4924968;29;20028;-70
2023/07/20 11:34:18;;;;;;;5.65;1.70;;;41.20;54.50;;;;;;4926036;29;20031;-69
2023/07/20 11:36:48;;;;;;;0.40;0.40;;;41.00;54.90;;;;;;4928427;29;20555;-69
2023/07/20 11:39:20;;;;;;;1.42;0.40;;;41.00;54.70;;;;;;4924768;29;20139;-69
2023/07/20 11:41:51;;;;;;;1.25;0.93;;;41.20;54.50;;;;;;4924141;29;20051;-70
2023/07/20 11:44:17;;;;;;;;;;;41.40;54.70;;;;;;4926133;29;20019;-68
2023/07/20 11:46:46;;;;;;;2.58;1.20;;;41.40;54.50;;;;;;4925911;29;20386;-69
2023/07/20 11:49:13;;;;;;;1.60;1.20;;;40.80;54.70;;;;;;4924887;29;20047;-71
2023/07/20 11:51:40;;;;;;;0.75;0.55;;;40.70;55.00;;;;;;4925205;29;20031;-70
2023/07/20 11:54:08;;;;;;;0.50;0.50;;;40.50;54.60;;;;;;4920527;29;20086;-70
2023/07/20 11:56:34;;;;;;;1.05;0.60;;;40.30;54.10;;;;;;4916054;29;20028;-70
2023/07/20 11:59:01;;;;;;;2.38;1.05;;;40.20;54.10;;;;;;4913350;29;20028;-70
2023/07/20 12:01:31;;;;;;;0.98;0.60;;;40.30;53.80;;;;;;4931696;29;20110;-70
2023/07/20 12:03:59;;;;;;;0.55;0.52;;;40.60;54.70;;;;;;4922237;29;20036;-70
2023/07/20 12:06:25;;;;;;;1.10;0.40;;;40.80;55.40;;;;;;4927939;28;20032;-70
2023/07/20 12:08:55;;;;;;;1.27;0.60;;;40.90;54.60;;;;;;4923752;29;20118;-70
2023/07/20 12:11:37;;;;;;;1.93;0.57;;;40.90;54.50;;;;;;4929468;29;20070;-72
2023/07/20 12:14:09;;;;;;;1.17;0.40;;;40.90;54.20;;;;;;4926062;29;20032;-71
2023/07/20 12:16:37;;;;;;;1.17;0.70;;;40.80;54.20;;;;;;4936196;28;20055;-70
2023/07/20 12:19:12;;;;;;;1.20;0.90;;;40.50;54.50;;;;;;4931813;28;20063;-70
2023/07/20 12:21:40;;;;;;;1.17;0.40;;;40.70;54.90;;;;;;4946769;28;20039;-70
2023/07/20 12:24:06;;;;;;;0.82;0.65;;;40.90;54.90;;;;;;4947038;29;20035;-70
2023/07/20 12:26:33;;;;;;;2.55;0.70;;;41.00;54.20;;;;;;4954037;28;20038;-70
2023/07/20 12:28:59;;;;;;;1.67;0.52;;;40.90;54.30;;;;;;4953744;28;20024;-71
2023/07/20 12:31:26;;;;;;;2.25;1.20;;;40.60;54.20;;;;;;4953796;28;20031;-70
2023/07/20 12:33:52;;;;;;;1.85;0.50;;;40.60;54.60;;;;;;4954001;28;20078;-71
2023/07/20 12:36:19;;;;;;;0.82;0.77;;;40.50;53.90;;;;;;4953808;28;20365;-71
2023/07/20 12:38:45;;;;;;;3.50;1.80;;;40.10;54.30;;;;;;4919872;29;20043;-69
2023/07/20 12:41:15;;;;;;;4.53;1.50;;;39.90;55.00;;;;;;4929772;29;20114;-70
2023/07/20 12:43:44;;;;;;;2.28;1.42;;;39.70;54.60;;;;;;4927921;29;20075;-70
2023/07/20 12:46:11;;;;;;;3.30;1.55;;;39.50;54.80;;;;;;4930119;29;20457;-70